Terminal Aerodrome Forecast
Issued by NWS Binghamton, NY

Home | Current Version | Previous Version | Text Only | Print | Product List | Glossary On
Versions: 1 2 3 4 5 6 7 8 9 10 11 12 13 14 15
640
FTUS41 KBGM 251325 AAB
TAFBGM
TAF AMD
KBGM 251325Z 2513/2612 23007KT P6SM SCT050 OVC120
      TEMPO 2515/2517 -SHRA BKN035
     FM251800 25010KT P6SM SCT040 BKN100
      TEMPO 2518/2521 3SM TSRA BR BKN035CB
     FM252200 27007KT P6SM BKN250=

USA.gov is the U.S. government's official web portal to all federal, state and local government web resources and services.